sensor_id;sensor_type;location;lat;lon;timestamp;temperature;humidity
63313;DHT22;49442;45.640;13.812;2024-03-22T00:01:48;13.30;99.90
63313;DHT22;49442;45.640;13.812;2024-03-22T00:04:16;13.40;99.90
63313;DHT22;49442;45.640;13.812;2024-03-22T00:06:42;13.30;99.90
63313;DHT22;49442;45.640;13.812;2024-03-22T00:09:09;13.30;99.90
63313;DHT22;49442;45.640;13.812;2024-03-22T00:11:35;13.20;99.90
63313;DHT22;49442;45.640;13.812;2024-03-22T00:14:04;13.20;99.90
63313;DHT22;49442;45.640;13.812;2024-03-22T00:16:30;13.20;99.90
63313;DHT22;49442;45.640;13.812;2024-03-22T00:18:55;13.10;99.90
63313;DHT22;49442;45.640;13.812;2024-03-22T00:21:22;13.10;99.90
63313;DHT22;49442;45.640;13.812;2024-03-22T00:23:48;13.10;99.90
63313;DHT22;49442;45.640;13.812;2024-03-22T00:26:14;13.10;99.90
63313;DHT22;49442;45.640;13.812;2024-03-22T00:28:40;13.10;99.90
63313;DHT22;49442;45.640;13.812;2024-03-22T00:31:05;13.00;99.90
63313;DHT22;49442;45.640;13.812;2024-03-22T00:33:31;13.00;99.90
63313;DHT22;49442;45.640;13.812;2024-03-22T00:35:57;12.90;99.90
63313;DHT22;49442;45.640;13.812;2024-03-22T00:38:23;12.90;99.90
63313;DHT22;49442;45.640;13.812;2024-03-22T00:40:49;12.90;99.90
63313;DHT22;49442;45.640;13.812;2024-03-22T00:43:15;12.90;99.90
63313;DHT22;49442;45.640;13.812;2024-03-22T00:45:41;12.90;99.90
63313;DHT22;49442;45.640;13.812;2024-03-22T00:48:07;13.00;99.90
63313;DHT22;49442;45.640;13.812;2024-03-22T00:50:33;13.00;99.90
63313;DHT22;49442;45.640;13.812;2024-03-22T00:52:59;13.00;99.90
63313;DHT22;49442;45.640;13.812;2024-03-22T00:55:24;13.00;99.90
63313;DHT22;49442;45.640;13.812;2024-03-22T00:57:51;12.90;99.90
63313;DHT22;49442;45.640;13.812;2024-03-22T01:00:17;12.80;99.90
63313;DHT22;49442;45.640;13.812;2024-03-22T01:02:43;12.80;99.90
63313;DHT22;49442;45.640;13.812;2024-03-22T01:05:09;12.80;99.90
63313;DHT22;49442;45.640;13.812;2024-03-22T01:07:36;12.70;99.90
63313;DHT22;49442;45.640;13.812;2024-03-22T01:10:02;12.60;99.90
63313;DHT22;49442;45.640;13.812;2024-03-22T01:12:28;12.70;99.90
63313;DHT22;49442;45.640;13.812;2024-03-22T01:14:54;12.60;99.90
63313;DHT22;49442;45.640;13.812;2024-03-22T01:17:20;12.60;99.90
63313;DHT22;49442;45.640;13.812;2024-03-22T01:19:45;12.60;99.90
63313;DHT22;49442;45.640;13.812;2024-03-22T01:22:11;12.50;99.90
63313;DHT22;49442;45.640;13.812;2024-03-22T01:24:37;12.50;99.90
63313;DHT22;49442;45.640;13.812;2024-03-22T01:27:03;12.50;99.90
63313;DHT22;49442;45.640;13.812;2024-03-22T01:29:29;12.50;99.90
63313;DHT22;49442;45.640;13.812;2024-03-22T01:31:58;12.40;99.90
63313;DHT22;49442;45.640;13.812;2024-03-22T01:34:24;12.40;99.90
63313;DHT22;49442;45.640;13.812;2024-03-22T01:36:51;12.40;99.90
63313;DHT22;49442;45.640;13.812;2024-03-22T01:39:16;12.50;99.90
63313;DHT22;49442;45.640;13.812;2024-03-22T01:41:43;12.50;99.90
63313;DHT22;49442;45.640;13.812;2024-03-22T01:44:09;12.50;99.90
63313;DHT22;49442;45.640;13.812;2024-03-22T01:46:35;12.50;99.90
63313;DHT22;49442;45.640;13.812;2024-03-22T01:49:01;12.50;99.90
63313;DHT22;49442;45.640;13.812;2024-03-22T01:51:27;12.50;99.90
63313;DHT22;49442;45.640;13.812;2024-03-22T01:53:53;12.50;99.90
63313;DHT22;49442;45.640;13.812;2024-03-22T01:56:20;12.50;99.90
63313;DHT22;49442;45.640;13.812;2024-03-22T01:58:46;12.50;99.90
63313;DHT22;49442;45.640;13.812;2024-03-22T02:01:12;12.50;99.90
63313;DHT22;49442;45.640;13.812;2024-03-22T02:03:38;12.40;99.90
63313;DHT22;49442;45.640;13.812;2024-03-22T02:06:04;12.40;99.90
63313;DHT22;49442;45.640;13.812;2024-03-22T02:08:30;12.40;99.90
63313;DHT22;49442;45.640;13.812;2024-03-22T02:10:55;12.50;99.90
63313;DHT22;49442;45.640;13.812;2024-03-22T02:13:21;12.50;99.90
63313;DHT22;49442;45.640;13.812;2024-03-22T02:15:47;12.50;99.90
63313;DHT22;49442;45.640;13.812;2024-03-22T02:18:12;12.50;99.90
63313;DHT22;49442;45.640;13.812;2024-03-22T02:20:38;12.50;99.90
63313;DHT22;49442;45.640;13.812;2024-03-22T02:23:04;12.50;99.90
63313;DHT22;49442;45.640;13.812;2024-03-22T02:25:29;12.50;99.90
63313;DHT22;49442;45.640;13.812;2024-03-22T02:27:55;12.50;99.90
63313;DHT22;49442;45.640;13.812;2024-03-22T02:30:21;12.50;99.90
63313;DHT22;49442;45.640;13.812;2024-03-22T02:32:46;12.60;99.90
63313;DHT22;49442;45.640;13.812;2024-03-22T02:35:12;12.50;99.90
63313;DHT22;49442;45.640;13.812;2024-03-22T02:37:38;12.50;99.90
63313;DHT22;49442;45.640;13.812;2024-03-22T02:40:04;12.40;99.90
63313;DHT22;49442;45.640;13.812;2024-03-22T02:42:29;12.40;99.90
63313;DHT22;49442;45.640;13.812;2024-03-22T02:44:55;12.50;99.90
63313;DHT22;49442;45.640;13.812;2024-03-22T02:47:21;12.50;99.90
63313;DHT22;49442;45.640;13.812;2024-03-22T02:49:46;12.50;99.90
63313;DHT22;49442;45.640;13.812;2024-03-22T02:52:12;12.50;99.90
63313;DHT22;49442;45.640;13.812;2024-03-22T02:54:38;12.50;99.90
63313;DHT22;49442;45.640;13.812;2024-03-22T02:57:04;12.50;99.90
63313;DHT22;49442;45.640;13.812;2024-03-22T02:59:29;12.50;99.90
63313;DHT22;49442;45.640;13.812;2024-03-22T03:01:55;12.50;99.90
63313;DHT22;49442;45.640;13.812;2024-03-22T03:04:21;12.40;99.90
63313;DHT22;49442;45.640;13.812;2024-03-22T03:06:47;12.40;99.90
63313;DHT22;49442;45.640;13.812;2024-03-22T03:09:12;12.40;99.90
63313;DHT22;49442;45.640;13.812;2024-03-22T03:11:39;12.40;99.90
63313;DHT22;49442;45.640;13.812;2024-03-22T03:14:05;12.40;99.90
63313;DHT22;49442;45.640;13.812;2024-03-22T03:16:31;12.40;99.90
63313;DHT22;49442;45.640;13.812;2024-03-22T03:18:57;12.30;99.90
63313;DHT22;49442;45.640;13.812;2024-03-22T03:21:22;12.40;99.90
63313;DHT22;49442;45.640;13.812;2024-03-22T03:23:48;12.30;99.90
63313;DHT22;49442;45.640;13.812;2024-03-22T03:26:14;12.30;99.90
63313;DHT22;49442;45.640;13.812;2024-03-22T03:28:40;12.20;99.90
63313;DHT22;49442;45.640;13.812;2024-03-22T03:31:05;12.20;99.90
63313;DHT22;49442;45.640;13.812;2024-03-22T03:33:31;12.30;99.90
63313;DHT22;49442;45.640;13.812;2024-03-22T03:35:57;12.30;99.90
63313;DHT22;49442;45.640;13.812;2024-03-22T03:38:22;12.20;99.90
63313;DHT22;49442;45.640;13.812;2024-03-22T03:40:48;12.20;99.90
63313;DHT22;49442;45.640;13.812;2024-03-22T03:43:14;12.10;99.90
63313;DHT22;49442;45.640;13.812;2024-03-22T03:45:40;12.20;99.90
63313;DHT22;49442;45.640;13.812;2024-03-22T03:48:06;12.30;99.90
63313;DHT22;49442;45.640;13.812;2024-03-22T03:50:31;12.40;99.90
63313;DHT22;49442;45.640;13.812;2024-03-22T03:52:57;12.40;99.90
63313;DHT22;49442;45.640;13.812;2024-03-22T03:55:23;12.40;99.90
63313;DHT22;49442;45.640;13.812;2024-03-22T03:57:52;12.40;99.90
63313;DHT22;49442;45.640;13.812;2024-03-22T04:00:21;12.50;99.90
63313;DHT22;49442;45.640;13.812;2024-03-22T04:02:48;12.60;99.90
63313;DHT22;49442;45.640;13.812;2024-03-22T04:05:14;12.60;99.90
63313;DHT22;49442;45.640;13.812;2024-03-22T04:07:40;12.80;99.90
63313;DHT22;49442;45.640;13.812;2024-03-22T04:10:08;12.70;99.90
63313;DHT22;49442;45.640;13.812;2024-03-22T04:12:34;12.70;99.90
63313;DHT22;49442;45.640;13.812;2024-03-22T04:15:00;12.70;99.90
63313;DHT22;49442;45.640;13.812;2024-03-22T04:17:26;12.70;99.90
63313;DHT22;49442;45.640;13.812;2024-03-22T04:19:52;12.70;99.90
63313;DHT22;49442;45.640;13.812;2024-03-22T04:22:18;12.70;99.90
63313;DHT22;49442;45.640;13.812;2024-03-22T04:24:44;12.70;99.90
63313;DHT22;49442;45.640;13.812;2024-03-22T04:27:10;12.70;99.90
63313;DHT22;49442;45.640;13.812;2024-03-22T04:29:35;12.80;99.90
63313;DHT22;49442;45.640;13.812;2024-03-22T04:32:01;12.80;99.90
63313;DHT22;49442;45.640;13.812;2024-03-22T04:34:27;12.80;99.90
63313;DHT22;49442;45.640;13.812;2024-03-22T04:36:52;12.90;99.90
63313;DHT22;49442;45.640;13.812;2024-03-22T04:39:20;12.90;99.90
63313;DHT22;49442;45.640;13.812;2024-03-22T04:41:45;12.90;99.90
63313;DHT22;49442;45.640;13.812;2024-03-22T04:44:11;13.00;99.90
63313;DHT22;49442;45.640;13.812;2024-03-22T04:46:36;13.00;99.90
63313;DHT22;49442;45.640;13.812;2024-03-22T04:49:02;12.90;99.90
63313;DHT22;49442;45.640;13.812;2024-03-22T04:51:28;12.90;99.90
63313;DHT22;49442;45.640;13.812;2024-03-22T04:53:53;12.90;99.90
63313;DHT22;49442;45.640;13.812;2024-03-22T04:56:19;12.90;99.90
63313;DHT22;49442;45.640;13.812;2024-03-22T04:58:45;12.90;99.90
63313;DHT22;49442;45.640;13.812;2024-03-22T05:01:10;12.80;99.90
63313;DHT22;49442;45.640;13.812;2024-03-22T05:03:38;12.80;99.90
63313;DHT22;49442;45.640;13.812;2024-03-22T05:06:04;12.80;99.90
63313;DHT22;49442;45.640;13.812;2024-03-22T05:08:31;12.80;99.90
63313;DHT22;49442;45.640;13.812;2024-03-22T05:10:57;12.80;99.90
63313;DHT22;49442;45.640;13.812;2024-03-22T05:13:23;12.80;99.90
63313;DHT22;49442;45.640;13.812;2024-03-22T05:15:48;12.80;99.90
63313;DHT22;49442;45.640;13.812;2024-03-22T05:18:14;12.80;99.90
63313;DHT22;49442;45.640;13.812;2024-03-22T05:20:40;12.80;99.90
63313;DHT22;49442;45.640;13.812;2024-03-22T05:23:05;12.80;99.90
63313;DHT22;49442;45.640;13.812;2024-03-22T05:25:31;12.80;99.90
63313;DHT22;49442;45.640;13.812;2024-03-22T05:27:57;12.70;99.90
63313;DHT22;49442;45.640;13.812;2024-03-22T05:30:22;12.70;99.90
63313;DHT22;49442;45.640;13.812;2024-03-22T05:32:48;12.70;99.90
63313;DHT22;49442;45.640;13.812;2024-03-22T05:35:15;12.70;99.90
63313;DHT22;49442;45.640;13.812;2024-03-22T05:37:41;12.70;99.90
63313;DHT22;49442;45.640;13.812;2024-03-22T05:40:07;12.70;99.90
63313;DHT22;49442;45.640;13.812;2024-03-22T05:42:34;12.70;99.90
63313;DHT22;49442;45.640;13.812;2024-03-22T05:45:00;12.60;99.90
63313;DHT22;49442;45.640;13.812;2024-03-22T05:47:25;12.60;99.90
63313;DHT22;49442;45.640;13.812;2024-03-22T05:49:51;12.60;99.90
63313;DHT22;49442;45.640;13.812;2024-03-22T05:52:18;12.60;99.90
63313;DHT22;49442;45.640;13.812;2024-03-22T05:54:44;12.60;99.90
63313;DHT22;49442;45.640;13.812;2024-03-22T05:57:10;12.60;99.90
63313;DHT22;49442;45.640;13.812;2024-03-22T05:59:36;12.60;99.90
63313;DHT22;49442;45.640;13.812;2024-03-22T06:02:02;12.70;99.90
63313;DHT22;49442;45.640;13.812;2024-03-22T06:04:28;12.70;99.90
63313;DHT22;49442;45.640;13.812;2024-03-22T06:06:53;12.70;99.90
63313;DHT22;49442;45.640;13.812;2024-03-22T06:09:19;12.80;99.90
63313;DHT22;49442;45.640;13.812;2024-03-22T06:12:00;12.80;99.90
63313;DHT22;49442;45.640;13.812;2024-03-22T06:14:28;12.80;99.90
63313;DHT22;49442;45.640;13.812;2024-03-22T06:16:53;12.80;99.90
63313;DHT22;49442;45.640;13.812;2024-03-22T06:19:19;12.90;99.90
63313;DHT22;49442;45.640;13.812;2024-03-22T06:21:45;13.00;99.90
63313;DHT22;49442;45.640;13.812;2024-03-22T06:24:10;13.00;99.90
63313;DHT22;49442;45.640;13.812;2024-03-22T06:26:36;13.10;99.90
63313;DHT22;49442;45.640;13.812;2024-03-22T06:29:02;13.10;99.90
63313;DHT22;49442;45.640;13.812;2024-03-22T06:31:28;13.20;99.90
63313;DHT22;49442;45.640;13.812;2024-03-22T06:33:54;13.30;99.90
63313;DHT22;49442;45.640;13.812;2024-03-22T06:36:22;13.30;99.90
63313;DHT22;49442;45.640;13.812;2024-03-22T06:38:47;13.40;99.90
63313;DHT22;49442;45.640;13.812;2024-03-22T06:41:13;13.60;99.90
63313;DHT22;49442;45.640;13.812;2024-03-22T06:43:39;13.60;99.90
63313;DHT22;49442;45.640;13.812;2024-03-22T06:46:05;13.60;99.90
63313;DHT22;49442;45.640;13.812;2024-03-22T06:48:30;13.60;99.90
63313;DHT22;49442;45.640;13.812;2024-03-22T06:50:56;13.60;99.90
63313;DHT22;49442;45.640;13.812;2024-03-22T06:53:21;13.80;99.90
63313;DHT22;49442;45.640;13.812;2024-03-22T06:55:47;13.80;99.90
63313;DHT22;49442;45.640;13.812;2024-03-22T06:58:13;13.90;99.90
63313;DHT22;49442;45.640;13.812;2024-03-22T07:00:38;13.90;99.90
63313;DHT22;49442;45.640;13.812;2024-03-22T07:03:05;14.10;99.90
63313;DHT22;49442;45.640;13.812;2024-03-22T07:05:31;14.10;99.90
63313;DHT22;49442;45.640;13.812;2024-03-22T07:07:56;14.30;99.90
63313;DHT22;49442;45.640;13.812;2024-03-22T07:10:23;14.30;99.90
63313;DHT22;49442;45.640;13.812;2024-03-22T07:12:56;14.50;99.90
63313;DHT22;49442;45.640;13.812;2024-03-22T07:15:25;14.60;99.90
63313;DHT22;49442;45.640;13.812;2024-03-22T07:17:51;14.60;99.90
63313;DHT22;49442;45.640;13.812;2024-03-22T07:20:17;14.60;99.90
63313;DHT22;49442;45.640;13.812;2024-03-22T07:22:44;14.80;99.90
63313;DHT22;49442;45.640;13.812;2024-03-22T07:25:09;14.80;99.90
63313;DHT22;49442;45.640;13.812;2024-03-22T07:27:36;14.90;99.90
63313;DHT22;49442;45.640;13.812;2024-03-22T07:30:02;15.10;99.90
63313;DHT22;49442;45.640;13.812;2024-03-22T07:32:29;15.20;99.90
63313;DHT22;49442;45.640;13.812;2024-03-22T07:34:58;15.30;99.90
63313;DHT22;49442;45.640;13.812;2024-03-22T07:37:23;15.50;99.90
63313;DHT22;49442;45.640;13.812;2024-03-22T07:39:49;15.60;99.90
63313;DHT22;49442;45.640;13.812;2024-03-22T07:42:15;15.80;99.90
63313;DHT22;49442;45.640;13.812;2024-03-22T07:44:44;15.90;99.90
63313;DHT22;49442;45.640;13.812;2024-03-22T07:47:09;16.00;99.90
63313;DHT22;49442;45.640;13.812;2024-03-22T07:49:37;16.10;99.90
63313;DHT22;49442;45.640;13.812;2024-03-22T07:52:03;16.10;99.90
63313;DHT22;49442;45.640;13.812;2024-03-22T07:54:30;16.20;99.90
63313;DHT22;49442;45.640;13.812;2024-03-22T07:56:56;16.30;99.90
63313;DHT22;49442;45.640;13.812;2024-03-22T07:59:24;16.40;99.90
63313;DHT22;49442;45.640;13.812;2024-03-22T08:01:50;16.50;99.90
63313;DHT22;49442;45.640;13.812;2024-03-22T08:04:16;16.60;99.90
63313;DHT22;49442;45.640;13.812;2024-03-22T08:06:42;16.70;99.90
63313;DHT22;49442;45.640;13.812;2024-03-22T08:09:07;16.80;99.90
63313;DHT22;49442;45.640;13.812;2024-03-22T08:11:33;17.10;99.90
63313;DHT22;49442;45.640;13.812;2024-03-22T08:13:59;17.20;99.90
63313;DHT22;49442;45.640;13.812;2024-03-22T08:16:31;17.20;99.70
63313;DHT22;49442;45.640;13.812;2024-03-22T08:18:57;17.30;99.90
63313;DHT22;49442;45.640;13.812;2024-03-22T08:21:23;17.30;99.90
63313;DHT22;49442;45.640;13.812;2024-03-22T08:23:50;17.40;99.20
63313;DHT22;49442;45.640;13.812;2024-03-22T08:26:16;17.50;98.10
63313;DHT22;49442;45.640;13.812;2024-03-22T08:28:42;17.50;98.00
63313;DHT22;49442;45.640;13.812;2024-03-22T08:31:07;17.70;98.40
63313;DHT22;49442;45.640;13.812;2024-03-22T08:33:33;17.80;96.90
63313;DHT22;49442;45.640;13.812;2024-03-22T08:35:59;17.90;96.90
63313;DHT22;49442;45.640;13.812;2024-03-22T08:38:26;18.10;97.20
63313;DHT22;49442;45.640;13.812;2024-03-22T08:40:52;18.20;96.10
63313;DHT22;49442;45.640;13.812;2024-03-22T08:43:18;18.40;95.50
63313;DHT22;49442;45.640;13.812;2024-03-22T08:45:44;18.50;94.70
63313;DHT22;49442;45.640;13.812;2024-03-22T08:48:09;18.70;95.30
63313;DHT22;49442;45.640;13.812;2024-03-22T08:50:35;19.00;94.70
63313;DHT22;49442;45.640;13.812;2024-03-22T08:53:01;19.40;93.40
63313;DHT22;49442;45.640;13.812;2024-03-22T08:55:30;19.80;94.80
63313;DHT22;49442;45.640;13.812;2024-03-22T08:57:56;20.30;92.40
63313;DHT22;49442;45.640;13.812;2024-03-22T09:00:22;20.80;91.50
63313;DHT22;49442;45.640;13.812;2024-03-22T09:02:47;21.40;91.40
63313;DHT22;49442;45.640;13.812;2024-03-22T09:05:13;22.10;90.80
63313;DHT22;49442;45.640;13.812;2024-03-22T09:07:39;22.40;88.20
63313;DHT22;49442;45.640;13.812;2024-03-22T09:10:05;23.00;86.30
63313;DHT22;49442;45.640;13.812;2024-03-22T09:12:31;24.50;82.40
63313;DHT22;49442;45.640;13.812;2024-03-22T09:14:57;26.30;78.30
63313;DHT22;49442;45.640;13.812;2024-03-22T09:17:23;26.60;74.30
63313;DHT22;49442;45.640;13.812;2024-03-22T09:19:49;26.60;71.30
63313;DHT22;49442;45.640;13.812;2024-03-22T09:22:14;26.60;67.50
63313;DHT22;49442;45.640;13.812;2024-03-22T09:24:40;26.50;67.20
63313;DHT22;49442;45.640;13.812;2024-03-22T09:27:06;26.10;65.40
63313;DHT22;49442;45.640;13.812;2024-03-22T09:29:36;25.40;68.00
63313;DHT22;49442;45.640;13.812;2024-03-22T09:32:02;24.70;68.40
63313;DHT22;49442;45.640;13.812;2024-03-22T09:34:28;23.90;70.10
63313;DHT22;49442;45.640;13.812;2024-03-22T09:36:55;23.30;73.10
63313;DHT22;49442;45.640;13.812;2024-03-22T09:39:22;22.90;71.50
63313;DHT22;49442;45.640;13.812;2024-03-22T09:41:47;22.50;71.90
63313;DHT22;49442;45.640;13.812;2024-03-22T09:44:18;22.10;72.50
63313;DHT22;49442;45.640;13.812;2024-03-22T09:46:46;21.70;73.10
63313;DHT22;49442;45.640;13.812;2024-03-22T09:49:12;21.50;76.20
63313;DHT22;49442;45.640;13.812;2024-03-22T09:51:39;21.30;77.30
63313;DHT22;49442;45.640;13.812;2024-03-22T09:54:07;21.20;76.90
63313;DHT22;49442;45.640;13.812;2024-03-22T09:56:34;21.20;78.80
63313;DHT22;49442;45.640;13.812;2024-03-22T09:59:00;23.10;76.00
63313;DHT22;49442;45.640;13.812;2024-03-22T10:01:26;23.20;76.30
63313;DHT22;49442;45.640;13.812;2024-03-22T10:03:52;23.40;75.50
63313;DHT22;49442;45.640;13.812;2024-03-22T10:06:20;25.00;69.70
63313;DHT22;49442;45.640;13.812;2024-03-22T10:08:46;24.10;72.20
63313;DHT22;49442;45.640;13.812;2024-03-22T10:11:12;23.60;71.50
63313;DHT22;49442;45.640;13.812;2024-03-22T10:13:37;22.90;70.90
63313;DHT22;49442;45.640;13.812;2024-03-22T10:16:03;23.10;73.10
63313;DHT22;49442;45.640;13.812;2024-03-22T10:18:32;24.50;70.80
63313;DHT22;49442;45.640;13.812;2024-03-22T10:21:02;26.50;65.60
63313;DHT22;49442;45.640;13.812;2024-03-22T10:23:29;26.80;65.10
63313;DHT22;49442;45.640;13.812;2024-03-22T10:25:56;25.40;65.20
63313;DHT22;49442;45.640;13.812;2024-03-22T10:28:24;24.30;68.30
63313;DHT22;49442;45.640;13.812;2024-03-22T10:30:51;23.70;72.30
63313;DHT22;49442;45.640;13.812;2024-03-22T10:33:21;23.50;76.10
63313;DHT22;49442;45.640;13.812;2024-03-22T10:35:53;23.00;77.30
63313;DHT22;49442;45.640;13.812;2024-03-22T10:38:20;22.60;79.50
63313;DHT22;49442;45.640;13.812;2024-03-22T10:40:46;22.20;80.70
63313;DHT22;49442;45.640;13.812;2024-03-22T10:43:16;22.10;80.80
63313;DHT22;49442;45.640;13.812;2024-03-22T10:45:42;22.00;83.50
63313;DHT22;49442;45.640;13.812;2024-03-22T10:48:12;22.00;81.30
63313;DHT22;49442;45.640;13.812;2024-03-22T10:50:41;21.80;81.40
63313;DHT22;49442;45.640;13.812;2024-03-22T10:53:18;21.40;81.50
63313;DHT22;49442;45.640;13.812;2024-03-22T10:55:47;21.20;81.00
63313;DHT22;49442;45.640;13.812;2024-03-22T10:58:15;20.90;81.30
63313;DHT22;49442;45.640;13.812;2024-03-22T11:00:42;20.70;83.60
63313;DHT22;49442;45.640;13.812;2024-03-22T11:03:13;20.70;84.10
63313;DHT22;49442;45.640;13.812;2024-03-22T11:05:48;20.70;83.70
63313;DHT22;49442;45.640;13.812;2024-03-22T11:10:49;20.60;82.70
63313;DHT22;49442;45.640;13.812;2024-03-22T11:13:16;20.60;83.60
63313;DHT22;49442;45.640;13.812;2024-03-22T11:15:43;20.60;82.90
63313;DHT22;49442;45.640;13.812;2024-03-22T11:18:09;20.70;83.80
63313;DHT22;49442;45.640;13.812;2024-03-22T11:20:37;20.70;82.90
63313;DHT22;49442;45.640;13.812;2024-03-22T11:23:07;20.80;83.00
63313;DHT22;49442;45.640;13.812;2024-03-22T11:25:33;20.80;77.40
63313;DHT22;49442;45.640;13.812;2024-03-22T11:27:59;20.80;81.30
63313;DHT22;49442;45.640;13.812;2024-03-22T11:30:29;20.70;78.80
63313;DHT22;49442;45.640;13.812;2024-03-22T11:32:56;20.80;80.00
63313;DHT22;49442;45.640;13.812;2024-03-22T11:35:22;20.80;81.20
63313;DHT22;49442;45.640;13.812;2024-03-22T11:37:49;20.90;82.40
63313;DHT22;49442;45.640;13.812;2024-03-22T11:40:15;21.00;80.90
63313;DHT22;49442;45.640;13.812;2024-03-22T11:42:42;21.10;81.20
63313;DHT22;49442;45.640;13.812;2024-03-22T11:45:11;21.10;79.80
63313;DHT22;49442;45.640;13.812;2024-03-22T11:47:37;21.00;78.00
63313;DHT22;49442;45.640;13.812;2024-03-22T11:50:03;21.10;79.50
63313;DHT22;49442;45.640;13.812;2024-03-22T11:52:29;21.10;79.80
63313;DHT22;49442;45.640;13.812;2024-03-22T11:54:56;21.00;81.00
63313;DHT22;49442;45.640;13.812;2024-03-22T11:57:23;21.20;75.70
63313;DHT22;49442;45.640;13.812;2024-03-22T11:59:48;21.20;78.40
63313;DHT22;49442;45.640;13.812;2024-03-22T12:02:14;21.30;77.20
63313;DHT22;49442;45.640;13.812;2024-03-22T12:04:46;21.30;77.60
63313;DHT22;49442;45.640;13.812;2024-03-22T12:07:17;21.30;78.00
63313;DHT22;49442;45.640;13.812;2024-03-22T12:09:43;21.30;79.80
63313;DHT22;49442;45.640;13.812;2024-03-22T12:12:11;21.30;79.20
63313;DHT22;49442;45.640;13.812;2024-03-22T12:14:37;21.30;76.50
63313;DHT22;49442;45.640;13.812;2024-03-22T12:17:04;21.20;77.00
63313;DHT22;49442;45.640;13.812;2024-03-22T12:19:30;21.10;76.80
63313;DHT22;49442;45.640;13.812;2024-03-22T12:21:56;21.20;76.80
63313;DHT22;49442;45.640;13.812;2024-03-22T12:24:23;21.20;76.70
63313;DHT22;49442;45.640;13.812;2024-03-22T12:26:49;21.20;77.00
63313;DHT22;49442;45.640;13.812;2024-03-22T12:29:18;21.20;78.80
63313;DHT22;49442;45.640;13.812;2024-03-22T12:31:44;21.10;76.30
63313;DHT22;49442;45.640;13.812;2024-03-22T12:34:10;21.20;77.70
63313;DHT22;49442;45.640;13.812;2024-03-22T12:36:36;21.20;76.50
63313;DHT22;49442;45.640;13.812;2024-03-22T12:39:02;21.20;77.30
63313;DHT22;49442;45.640;13.812;2024-03-22T12:41:28;21.20;77.10
63313;DHT22;49442;45.640;13.812;2024-03-22T12:43:55;21.30;77.10
63313;DHT22;49442;45.640;13.812;2024-03-22T12:46:21;21.20;74.30
63313;DHT22;49442;45.640;13.812;2024-03-22T12:48:46;21.10;78.20
63313;DHT22;49442;45.640;13.812;2024-03-22T12:51:12;21.10;81.30
63313;DHT22;49442;45.640;13.812;2024-03-22T12:53:38;21.10;78.10
63313;DHT22;49442;45.640;13.812;2024-03-22T12:56:04;21.00;78.90
63313;DHT22;49442;45.640;13.812;2024-03-22T12:58:30;21.00;81.00
63313;DHT22;49442;45.640;13.812;2024-03-22T13:00:57;21.00;81.00
63313;DHT22;49442;45.640;13.812;2024-03-22T13:03:23;20.90;81.50
63313;DHT22;49442;45.640;13.812;2024-03-22T13:05:48;21.00;82.20
63313;DHT22;49442;45.640;13.812;2024-03-22T13:08:14;21.10;79.70
63313;DHT22;49442;45.640;13.812;2024-03-22T13:10:40;21.10;76.60
63313;DHT22;49442;45.640;13.812;2024-03-22T13:13:09;21.00;78.40
63313;DHT22;49442;45.640;13.812;2024-03-22T13:15:35;21.00;78.30
63313;DHT22;49442;45.640;13.812;2024-03-22T13:18:03;21.10;77.00
63313;DHT22;49442;45.640;13.812;2024-03-22T13:20:29;21.00;78.20
63313;DHT22;49442;45.640;13.812;2024-03-22T13:22:55;20.80;77.60
63313;DHT22;49442;45.640;13.812;2024-03-22T13:25:21;20.80;78.90
63313;DHT22;49442;45.640;13.812;2024-03-22T13:27:47;20.70;78.30
63313;DHT22;49442;45.640;13.812;2024-03-22T13:30:13;20.60;80.40
63313;DHT22;49442;45.640;13.812;2024-03-22T13:32:40;20.50;82.90
63313;DHT22;49442;45.640;13.812;2024-03-22T13:35:06;20.50;80.70
63313;DHT22;49442;45.640;13.812;2024-03-22T13:37:32;20.40;80.80
63313;DHT22;49442;45.640;13.812;2024-03-22T13:39:58;20.40;81.30
63313;DHT22;49442;45.640;13.812;2024-03-22T13:42:25;20.40;81.10
63313;DHT22;49442;45.640;13.812;2024-03-22T13:44:51;20.50;81.50
63313;DHT22;49442;45.640;13.812;2024-03-22T13:47:16;20.50;81.10
63313;DHT22;49442;45.640;13.812;2024-03-22T13:49:43;20.50;83.40
63313;DHT22;49442;45.640;13.812;2024-03-22T13:52:09;20.40;80.70
63313;DHT22;49442;45.640;13.812;2024-03-22T13:54:35;20.20;80.40
63313;DHT22;49442;45.640;13.812;2024-03-22T13:57:01;20.20;81.70
63313;DHT22;49442;45.640;13.812;2024-03-22T13:59:28;20.30;80.70
63313;DHT22;49442;45.640;13.812;2024-03-22T14:01:55;20.40;81.70
63313;DHT22;49442;45.640;13.812;2024-03-22T14:04:22;20.40;80.20
63313;DHT22;49442;45.640;13.812;2024-03-22T14:06:48;20.40;81.10
63313;DHT22;49442;45.640;13.812;2024-03-22T14:09:13;20.40;80.50
63313;DHT22;49442;45.640;13.812;2024-03-22T14:11:41;20.20;80.40
63313;DHT22;49442;45.640;13.812;2024-03-22T14:14:09;20.30;81.50
63313;DHT22;49442;45.640;13.812;2024-03-22T14:16:34;20.30;80.40
63313;DHT22;49442;45.640;13.812;2024-03-22T14:19:00;20.20;80.90
63313;DHT22;49442;45.640;13.812;2024-03-22T14:21:26;20.10;80.50
63313;DHT22;49442;45.640;13.812;2024-03-22T14:23:52;20.10;81.70
63313;DHT22;49442;45.640;13.812;2024-03-22T14:26:19;20.10;80.90
63313;DHT22;49442;45.640;13.812;2024-03-22T14:28:45;20.00;80.40
63313;DHT22;49442;45.640;13.812;2024-03-22T14:31:12;20.00;81.10
63313;DHT22;49442;45.640;13.812;2024-03-22T14:33:39;20.00;80.20
63313;DHT22;49442;45.640;13.812;2024-03-22T14:36:06;19.90;79.90
63313;DHT22;49442;45.640;13.812;2024-03-22T14:38:33;19.80;80.20
63313;DHT22;49442;45.640;13.812;2024-03-22T14:40:59;19.70;81.70
63313;DHT22;49442;45.640;13.812;2024-03-22T14:43:26;19.60;82.40
63313;DHT22;49442;45.640;13.812;2024-03-22T14:45:53;19.60;82.20
63313;DHT22;49442;45.640;13.812;2024-03-22T14:48:23;19.60;84.00
63313;DHT22;49442;45.640;13.812;2024-03-22T14:50:49;19.70;84.00
63313;DHT22;49442;45.640;13.812;2024-03-22T14:53:16;19.50;82.00
63313;DHT22;49442;45.640;13.812;2024-03-22T14:55:58;19.50;83.60
63313;DHT22;49442;45.640;13.812;2024-03-22T14:58:27;19.60;84.50
63313;DHT22;49442;45.640;13.812;2024-03-22T15:00:54;19.50;84.70
63313;DHT22;49442;45.640;13.812;2024-03-22T15:03:20;19.50;83.90
63313;DHT22;49442;45.640;13.812;2024-03-22T15:05:46;19.40;84.70
63313;DHT22;49442;45.640;13.812;2024-03-22T15:08:12;19.50;85.30
63313;DHT22;49442;45.640;13.812;2024-03-22T15:10:38;19.30;85.00
63313;DHT22;49442;45.640;13.812;2024-03-22T15:13:04;19.20;85.40